createdAt,value
2024-04-06T00:02:21.713Z,15.00
2024-04-06T00:04:49.677Z,15.00
2024-04-06T00:07:19.555Z,19.40
2024-04-06T00:09:47.194Z,17.30
2024-04-06T00:12:20.738Z,17.20
2024-04-06T00:14:48.133Z,18.70
2024-04-06T00:17:15.625Z,19.60
2024-04-06T00:19:43.097Z,15.20
2024-04-06T00:22:11.589Z,17.00
2024-04-06T00:24:39.000Z,17.80
2024-04-06T00:27:06.365Z,15.40
2024-04-06T00:29:33.756Z,18.70
2024-04-06T00:32:01.137Z,19.70
2024-04-06T00:34:28.491Z,17.60
2024-04-06T00:36:57.609Z,17.60
2024-04-06T00:39:24.977Z,16.30
2024-04-06T00:41:52.523Z,16.50
2024-04-06T00:44:20.096Z,17.80
2024-04-06T00:46:47.446Z,16.10
2024-04-06T00:49:14.846Z,17.00
2024-04-06T00:51:42.226Z,14.30
2024-04-06T00:54:09.793Z,13.70
2024-04-06T00:56:37.702Z,18.60
2024-04-06T00:59:05.226Z,13.00
2024-04-06T01:01:32.592Z,13.30
2024-04-06T01:04:00.002Z,14.40
2024-04-06T01:06:27.555Z,13.40
2024-04-06T01:08:54.890Z,15.80
2024-04-06T01:11:22.318Z,18.80
2024-04-06T01:13:49.671Z,14.70
2024-04-06T01:16:17.154Z,13.10
2024-04-06T01:18:44.550Z,14.60
2024-04-06T01:21:11.943Z,11.60
2024-04-06T01:23:39.271Z,14.70
2024-04-06T01:26:07.069Z,13.70
2024-04-06T01:28:34.472Z,17.70
2024-04-06T01:31:01.767Z,14.40
2024-04-06T01:33:29.281Z,14.90
2024-04-06T01:35:56.714Z,13.20
2024-04-06T01:38:24.127Z,13.90
2024-04-06T01:43:18.267Z,12.50
2024-04-06T01:45:45.626Z,13.30
2024-04-06T01:48:13.454Z,11.10
2024-04-06T01:50:41.178Z,14.90
2024-04-06T01:53:08.568Z,16.90
2024-04-06T01:55:36.128Z,15.30
2024-04-06T01:58:03.689Z,11.70
2024-04-06T02:00:31.114Z,12.10
2024-04-06T02:02:58.500Z,14.90
2024-04-06T02:05:25.757Z,12.80
2024-04-06T02:07:53.246Z,12.50
2024-04-06T02:10:20.760Z,13.50
2024-04-06T02:12:48.264Z,14.10
2024-04-06T02:15:15.606Z,14.10
2024-04-06T02:17:43.134Z,12.90
2024-04-06T02:20:10.570Z,10.10
2024-04-06T02:22:37.924Z,13.20
2024-04-06T02:25:08.762Z,12.40
2024-04-06T02:27:42.038Z,13.10
2024-04-06T02:30:09.910Z,11.10
2024-04-06T02:32:37.270Z,10.60
2024-04-06T02:35:05.725Z,14.00
2024-04-06T02:37:33.104Z,13.70
2024-04-06T02:40:00.461Z,13.80
2024-04-06T02:42:27.839Z,14.60
2024-04-06T02:44:55.683Z,14.70
2024-04-06T02:47:23.083Z,13.40
2024-04-06T02:49:53.018Z,20.50
2024-04-06T02:52:20.491Z,17.10
2024-04-06T02:54:49.180Z,10.80
2024-04-06T02:57:17.159Z,17.40
2024-04-06T02:59:44.415Z,12.30
2024-04-06T03:02:11.883Z,15.30
2024-04-06T03:05:26.216Z,12.90
2024-04-06T03:07:53.711Z,11.60
2024-04-06T03:10:21.030Z,12.90
2024-04-06T03:12:50.767Z,12.90
2024-04-06T03:15:18.363Z,14.10
2024-04-06T03:17:45.693Z,12.60
2024-04-06T03:20:13.216Z,9.60
2024-04-06T03:22:40.619Z,13.30
2024-04-06T03:25:07.896Z,11.80
2024-04-06T03:27:35.225Z,14.60
2024-04-06T03:30:02.643Z,11.50
2024-04-06T03:32:30.115Z,14.30
2024-04-06T03:34:59.962Z,19.40
2024-04-06T03:37:27.363Z,15.40
2024-04-06T03:39:55.076Z,16.20
2024-04-06T03:42:25.527Z,12.80
2024-04-06T03:44:53.171Z,12.20
2024-04-06T03:47:24.518Z,14.00
2024-04-06T03:50:41.620Z,12.50
2024-04-06T03:53:11.426Z,15.80
2024-04-06T03:55:38.845Z,12.30
2024-04-06T03:58:06.479Z,14.30
2024-04-06T04:00:34.133Z,16.00
2024-04-06T04:03:01.560Z,20.60
2024-04-06T04:05:28.999Z,18.30
2024-04-06T04:07:56.402Z,15.70
2024-04-06T04:10:24.056Z,15.50
2024-04-06T04:12:51.759Z,16.60
2024-04-06T04:15:23.019Z,15.10
2024-04-06T04:17:50.310Z,16.70
2024-04-06T04:20:17.821Z,19.10
2024-04-06T04:22:45.206Z,21.60
2024-04-06T04:25:12.720Z,17.30
2024-04-06T04:27:40.139Z,17.90
2024-04-06T04:30:24.799Z,16.60
2024-04-06T04:32:53.494Z,14.90
2024-04-06T04:35:21.659Z,16.90
2024-04-06T04:37:49.101Z,15.50
2024-04-06T04:40:17.119Z,16.60
2024-04-06T04:42:44.523Z,16.60
2024-04-06T04:45:15.374Z,20.90
2024-04-06T04:47:45.307Z,22.30
2024-04-06T04:50:12.844Z,26.10
2024-04-06T04:52:40.286Z,21.80
2024-04-06T04:55:07.838Z,17.50
2024-04-06T04:57:35.239Z,26.20
2024-04-06T05:00:03.596Z,27.60
2024-04-06T05:02:30.942Z,24.00
2024-04-06T05:04:58.336Z,25.00
2024-04-06T05:07:25.663Z,26.50
2024-04-06T05:09:54.847Z,24.30
2024-04-06T05:12:22.194Z,20.00
2024-04-06T05:14:49.635Z,19.70
2024-04-06T05:17:17.223Z,16.30
2024-04-06T05:19:44.610Z,16.50
2024-04-06T05:22:11.965Z,20.80
2024-04-06T05:24:39.326Z,14.00
2024-04-06T05:27:06.951Z,15.40
2024-04-06T05:29:34.293Z,19.50
2024-04-06T05:32:01.672Z,18.20
2024-04-06T05:34:28.981Z,20.50
2024-04-06T05:36:59.782Z,21.20
2024-04-06T05:39:27.650Z,23.20
2024-04-06T05:41:55.041Z,18.10
2024-04-06T05:44:24.696Z,19.10
2024-04-06T05:46:55.085Z,28.70
2024-04-06T05:49:22.617Z,25.50
2024-04-06T05:51:50.030Z,19.20
2024-04-06T05:54:17.438Z,25.10
2024-04-06T05:56:44.962Z,21.10
2024-04-06T05:59:12.393Z,21.40
2024-04-06T06:01:40.070Z,18.10
2024-04-06T06:04:09.905Z,26.60
2024-04-06T06:06:37.250Z,21.10
2024-04-06T06:09:05.421Z,17.90
2024-04-06T06:11:32.792Z,19.50
2024-04-06T06:14:05.295Z,20.20
2024-04-06T06:16:35.071Z,19.30
2024-04-06T06:19:02.685Z,23.60
2024-04-06T06:21:36.251Z,23.00
2024-04-06T06:24:04.463Z,21.70
2024-04-06T06:26:32.402Z,25.20
2024-04-06T06:28:59.841Z,21.00
2024-04-06T06:31:34.868Z,18.30
2024-04-06T06:34:02.386Z,21.40
2024-04-06T06:41:33.675Z,20.80
2024-04-06T06:44:01.038Z,23.80
2024-04-06T06:46:28.428Z,27.20
2024-04-06T06:48:55.766Z,25.10
2024-04-06T06:51:23.106Z,22.50
2024-04-06T06:53:50.448Z,26.10
2024-04-06T06:56:17.856Z,20.20
2024-04-06T06:58:45.160Z,27.70
2024-04-06T07:01:12.553Z,25.20
2024-04-06T07:03:40.242Z,21.70
2024-04-06T07:06:10.642Z,28.40
2024-04-06T07:08:38.008Z,21.40
2024-04-06T07:11:05.770Z,22.20
2024-04-06T07:13:33.275Z,23.00
2024-04-06T07:16:13.191Z,32.00
2024-04-06T07:18:41.250Z,25.20
2024-04-06T07:21:12.110Z,37.00
2024-04-06T07:26:18.009Z,27.40
2024-04-06T07:28:45.493Z,32.20
2024-04-06T07:31:15.469Z,29.70
2024-04-06T07:33:42.989Z,25.20
2024-04-06T07:36:10.520Z,31.20
2024-04-06T07:39:19.834Z,32.90
2024-04-06T07:41:28.491Z,30.70
2024-04-06T07:43:55.866Z,29.60
2024-04-06T07:46:23.961Z,30.80
2024-04-06T07:48:51.372Z,27.90
2024-04-06T07:51:18.938Z,25.30
2024-04-06T07:53:47.236Z,25.30
2024-04-06T07:56:15.768Z,27.40
2024-04-06T07:58:43.277Z,22.60
2024-04-06T08:01:10.896Z,19.60
2024-04-06T08:03:38.385Z,16.40
2024-04-06T08:06:07.481Z,12.70
2024-04-06T08:08:35.997Z,20.00
2024-04-06T08:11:04.065Z,20.30
2024-04-06T08:13:32.184Z,23.90
2024-04-06T08:15:59.995Z,18.60
2024-04-06T08:18:29.781Z,14.30
2024-04-06T08:20:57.164Z,15.00
2024-04-06T08:23:24.596Z,16.20
2024-04-06T08:25:57.246Z,14.40
2024-04-06T08:28:24.621Z,15.40
2024-04-06T08:30:52.016Z,13.70
2024-04-06T08:39:52.642Z,27.10
2024-04-06T08:42:20.998Z,24.30
2024-04-06T08:44:48.838Z,27.70
2024-04-06T08:47:24.726Z,22.00
2024-04-06T08:49:51.689Z,33.20
2024-04-06T08:52:18.526Z,25.60
2024-04-06T08:54:45.251Z,23.40
2024-04-06T08:57:12.102Z,21.70
2024-04-06T08:59:38.922Z,17.40
2024-04-06T09:02:06.010Z,18.40
2024-04-06T09:04:32.912Z,15.40
2024-04-06T09:07:01.762Z,16.40
2024-04-06T09:09:28.683Z,25.50
2024-04-06T09:11:55.527Z,23.10
2024-04-06T09:14:24.724Z,17.20
2024-04-06T09:16:57.832Z,29.20
2024-04-06T09:19:25.642Z,20.90
2024-04-06T09:21:56.220Z,21.80
2024-04-06T09:24:27.352Z,20.80
2024-04-06T09:27:14.246Z,17.60
2024-04-06T09:29:47.028Z,15.30
2024-04-06T09:32:17.038Z,20.30
2024-04-06T09:34:50.834Z,20.40
2024-04-06T09:37:33.785Z,23.60
2024-04-06T09:40:01.104Z,23.20
2024-04-06T09:42:28.768Z,21.90
2024-04-06T09:44:56.809Z,11.80
2024-04-06T09:47:24.238Z,7.80
2024-04-06T09:49:51.195Z,5.70
2024-04-06T09:52:19.321Z,5.00
2024-04-06T09:54:47.029Z,3.80
2024-04-06T09:57:14.623Z,4.80
2024-04-06T09:59:43.349Z,4.30
2024-04-06T10:02:10.208Z,3.20
2024-04-06T10:05:51.947Z,4.10
2024-04-06T10:12:49.259Z,2.60
2024-04-06T10:15:18.019Z,3.90
2024-04-06T10:17:49.158Z,2.90
2024-04-06T10:20:26.861Z,2.80
2024-04-06T10:22:55.706Z,4.50
2024-04-06T10:25:27.207Z,3.90
2024-04-06T10:28:01.312Z,5.80
2024-04-06T10:30:39.826Z,19.10
2024-04-06T10:33:07.294Z,9.50
2024-04-06T10:35:34.171Z,6.90
2024-04-06T10:38:00.946Z,7.30
2024-04-06T10:40:28.828Z,12.40
2024-04-06T10:42:55.846Z,15.20
2024-04-06T10:45:22.614Z,16.10
2024-04-06T10:47:49.389Z,15.90
2024-04-06T10:50:17.719Z,9.60
2024-04-06T10:52:44.962Z,6.60
2024-04-06T10:55:16.562Z,5.30
2024-04-06T10:57:46.851Z,8.50
2024-04-06T11:00:18.477Z,15.80
2024-04-06T11:02:45.430Z,11.00
2024-04-06T11:05:14.648Z,9.40
2024-04-06T11:07:42.177Z,9.30
2024-04-06T11:10:10.209Z,10.80
2024-04-06T11:12:40.293Z,8.20
2024-04-06T11:15:08.348Z,11.70
2024-04-06T11:17:35.872Z,8.40
2024-04-06T11:20:03.969Z,11.40
2024-04-06T11:22:31.060Z,8.80
2024-04-06T11:24:57.849Z,14.00
2024-04-06T11:27:28.131Z,12.00
2024-04-06T11:29:55.636Z,10.90
2024-04-06T11:32:24.192Z,7.00
2024-04-06T11:34:53.964Z,5.50
2024-04-06T11:37:21.582Z,6.20
2024-04-06T11:39:48.920Z,7.30
2024-04-06T11:42:15.990Z,6.70
2024-04-06T11:44:42.892Z,6.00
2024-04-06T11:47:09.828Z,7.50
2024-04-06T11:49:36.581Z,8.20
2024-04-06T11:52:03.556Z,6.70
2024-04-06T11:54:30.354Z,4.40
2024-04-06T11:57:17.455Z,5.10
2024-04-06T11:59:44.145Z,4.90
2024-04-06T12:02:11.095Z,6.00
2024-04-06T12:04:37.815Z,5.60
2024-04-06T12:07:05.220Z,4.60
2024-04-06T12:09:32.067Z,6.70
2024-04-06T12:11:59.309Z,8.30
2024-04-06T12:14:26.143Z,6.70
2024-04-06T12:16:54.006Z,11.30
2024-04-06T12:19:21.008Z,5.40
2024-04-06T12:21:47.821Z,4.50
2024-04-06T12:24:15.414Z,4.10
2024-04-06T12:26:42.171Z,7.30
2024-04-06T12:29:10.473Z,7.80
2024-04-06T12:31:37.422Z,5.20
2024-04-06T12:34:04.243Z,8.30
2024-04-06T12:36:30.967Z,5.00
2024-04-06T12:38:58.544Z,4.80
2024-04-06T12:41:25.217Z,3.30
2024-04-06T12:43:52.052Z,4.00
2024-04-06T12:46:18.983Z,4.90
2024-04-06T12:48:45.797Z,3.70
2024-04-06T12:51:14.811Z,3.20
2024-04-06T12:53:42.397Z,3.80
2024-04-06T12:56:09.335Z,3.40
2024-04-06T12:58:36.226Z,4.30
2024-04-06T13:01:09.016Z,2.70
2024-04-06T13:03:38.734Z,2.00
2024-04-06T13:06:10.600Z,5.60
2024-04-06T13:08:37.415Z,2.30
2024-04-06T13:11:06.865Z,4.00
2024-04-06T13:13:34.101Z,3.10
2024-04-06T13:16:00.788Z,4.50
2024-04-06T13:18:27.507Z,5.40
2024-04-06T13:20:54.158Z,7.90
2024-04-06T13:23:21.088Z,5.00
2024-04-06T13:25:47.889Z,2.80
2024-04-06T13:28:14.598Z,6.60
2024-04-06T13:30:41.248Z,7.20
2024-04-06T13:33:08.113Z,6.00
2024-04-06T13:35:34.894Z,7.10
2024-04-06T13:38:01.721Z,3.70
2024-04-06T13:40:28.730Z,4.20
2024-04-06T13:42:56.443Z,3.20
2024-04-06T13:45:23.331Z,7.90
2024-04-06T13:47:50.097Z,4.00
2024-04-06T13:50:17.406Z,5.60
2024-04-06T13:52:44.078Z,3.30
2024-04-06T13:55:10.824Z,3.30
2024-04-06T13:57:38.025Z,1.50
2024-04-06T14:00:08.724Z,1.70
2024-04-06T14:03:09.772Z,4.10
2024-04-06T14:05:39.637Z,4.00
2024-04-06T14:08:06.523Z,2.50
2024-04-06T14:10:36.317Z,2.60
2024-04-06T14:13:04.382Z,4.20
2024-04-06T14:15:31.394Z,5.30
2024-04-06T14:18:00.741Z,5.40
2024-04-06T14:20:30.595Z,4.90
2024-04-06T14:22:57.692Z,3.30
2024-04-06T14:25:24.461Z,2.50
2024-04-06T14:27:51.334Z,2.20
2024-04-06T14:30:29.337Z,3.80
2024-04-06T14:32:58.992Z,5.70
2024-04-06T14:35:26.012Z,6.80
2024-04-06T14:37:52.806Z,4.30
2024-04-06T14:40:19.628Z,2.30
2024-04-06T14:42:46.721Z,2.70
2024-04-06T14:45:13.513Z,3.00
2024-04-06T14:47:40.472Z,2.10
2024-04-06T14:50:07.598Z,1.30
2024-04-06T14:52:34.281Z,3.40
2024-04-06T14:55:02.737Z,3.70
2024-04-06T14:57:29.665Z,2.60
2024-04-06T14:59:56.607Z,3.30
2024-04-06T15:02:23.690Z,2.90
2024-04-06T15:04:50.476Z,3.20
2024-04-06T15:07:24.899Z,3.00
2024-04-06T15:09:57.808Z,3.00
2024-04-06T15:12:24.676Z,5.60
2024-04-06T15:14:51.390Z,3.40
2024-04-06T15:17:18.255Z,4.90
2024-04-06T15:19:47.607Z,5.50
2024-04-06T15:22:16.464Z,2.00
2024-04-06T15:24:43.612Z,2.50
2024-04-06T15:27:10.823Z,1.90
2024-04-06T15:29:38.142Z,3.50
2024-04-06T15:32:05.414Z,2.50
2024-04-06T15:34:33.409Z,3.80
2024-04-06T15:37:04.430Z,2.80
2024-04-06T15:39:32.798Z,3.10
2024-04-06T15:41:59.573Z,1.60
2024-04-06T15:44:26.403Z,3.60
2024-04-06T15:46:54.620Z,4.50
2024-04-06T15:49:21.585Z,3.10
2024-04-06T15:51:48.363Z,5.40
2024-04-06T15:54:15.259Z,2.30
2024-04-06T15:56:42.030Z,2.50
2024-04-06T15:59:08.680Z,4.40
2024-04-06T16:01:35.986Z,4.20
2024-04-06T16:04:06.062Z,2.70
2024-04-06T16:08:32.252Z,3.00
2024-04-06T16:10:59.081Z,5.30
2024-04-06T16:13:25.804Z,4.70
2024-04-06T16:15:52.752Z,10.30
2024-04-06T16:18:19.458Z,8.40
2024-04-06T16:20:49.403Z,9.80
2024-04-06T16:23:16.339Z,4.50
2024-04-06T16:25:43.145Z,5.20
2024-04-06T16:28:14.041Z,3.20
2024-04-06T16:30:40.903Z,4.10
2024-04-06T16:33:07.596Z,4.50
2024-04-06T16:35:34.507Z,2.70
2024-04-06T16:38:05.760Z,5.60
2024-04-06T16:40:32.695Z,4.20
2024-04-06T16:42:59.955Z,3.40
2024-04-06T16:45:27.818Z,4.90
2024-04-06T16:47:58.553Z,5.60
2024-04-06T16:50:26.367Z,7.40
2024-04-06T16:52:58.448Z,7.90
2024-04-06T16:55:25.278Z,4.50
2024-04-06T16:57:52.187Z,8.00
2024-04-06T17:00:19.210Z,6.70
2024-04-06T17:02:46.517Z,5.30
2024-04-06T17:05:13.939Z,4.90
2024-04-06T17:07:41.440Z,5.70
2024-04-06T17:10:09.084Z,8.70
2024-04-06T17:12:42.187Z,10.80
2024-04-06T17:15:09.196Z,11.30
2024-04-06T17:17:36.108Z,10.60
2024-04-06T17:20:06.030Z,8.80
2024-04-06T17:22:33.763Z,11.50
2024-04-06T17:25:11.909Z,6.70
2024-04-06T17:27:38.751Z,6.40
2024-04-06T17:30:09.313Z,11.60
2024-04-06T17:32:37.551Z,18.60
2024-04-06T17:35:05.567Z,14.70
2024-04-06T17:37:35.107Z,11.60
2024-04-06T17:40:05.047Z,12.40
2024-04-06T17:42:33.120Z,12.30
2024-04-06T17:45:00.413Z,16.60
2024-04-06T17:47:27.219Z,11.80
2024-04-06T17:49:54.085Z,11.10
2024-04-06T17:52:20.802Z,12.60
2024-04-06T17:54:48.107Z,13.40
2024-04-06T17:57:19.207Z,13.80
2024-04-06T17:59:50.168Z,10.30
2024-04-06T18:02:17.095Z,13.50
2024-04-06T18:04:47.647Z,14.30
2024-04-06T18:07:14.287Z,15.10
2024-04-06T18:09:41.151Z,13.30
2024-04-06T18:12:11.112Z,16.50
2024-04-06T18:14:37.818Z,11.90
2024-04-06T18:17:06.480Z,13.10
2024-04-06T18:19:39.775Z,13.20
2024-04-06T18:22:07.327Z,15.50
2024-04-06T18:24:35.379Z,11.00
2024-04-06T18:27:52.886Z,11.70
2024-04-06T18:30:21.217Z,13.80
2024-04-06T18:32:48.187Z,13.60
2024-04-06T18:35:17.221Z,14.00
2024-04-06T18:37:46.662Z,16.00
2024-04-06T18:40:13.643Z,14.60
2024-04-06T18:42:40.487Z,19.40
2024-04-06T18:45:07.586Z,18.20
2024-04-06T18:47:35.991Z,21.90
2024-04-06T18:50:05.284Z,18.80
2024-04-06T18:52:35.563Z,19.30
2024-04-06T18:55:04.495Z,15.10
2024-04-06T18:57:34.189Z,16.40
2024-04-06T19:00:00.986Z,18.20
2024-04-06T19:02:27.807Z,14.60
2024-04-06T19:05:01.384Z,14.80
2024-04-06T19:07:28.346Z,10.70
2024-04-06T19:09:57.797Z,12.30
2024-04-06T19:12:24.845Z,14.50
2024-04-06T19:14:51.744Z,12.20
2024-04-06T19:17:18.466Z,14.40
2024-04-06T19:19:48.130Z,18.10
2024-04-06T19:22:15.007Z,25.20
2024-04-06T19:24:41.675Z,25.60
2024-04-06T19:27:08.630Z,25.80
2024-04-06T19:29:35.667Z,20.00
2024-04-06T19:32:02.709Z,21.60
2024-04-06T19:34:32.948Z,24.00
2024-04-06T19:36:59.782Z,22.50
2024-04-06T19:39:26.631Z,23.40
2024-04-06T19:41:55.129Z,19.20
2024-04-06T19:44:22.065Z,20.90
2024-04-06T19:46:51.344Z,18.50
2024-04-06T19:49:18.111Z,17.60
2024-04-06T19:51:44.925Z,19.40
2024-04-06T19:54:11.810Z,22.60
2024-04-06T19:56:44.252Z,15.10
2024-04-06T19:59:11.982Z,16.70
2024-04-06T20:01:40.218Z,15.90
2024-04-06T20:04:10.158Z,19.60
2024-04-06T20:06:38.786Z,24.30
2024-04-06T20:09:07.730Z,20.30
2024-04-06T20:11:34.642Z,24.60
2024-04-06T20:14:01.807Z,28.60
2024-04-06T20:16:29.206Z,34.20
2024-04-06T20:18:57.451Z,30.80
2024-04-06T20:21:26.061Z,37.70
2024-04-06T20:24:11.305Z,32.40
2024-04-06T20:26:40.446Z,39.90
2024-04-06T20:29:11.158Z,37.40
2024-04-06T20:31:39.397Z,39.60
2024-04-06T20:34:06.330Z,44.90
2024-04-06T20:36:35.217Z,42.90
2024-04-06T20:39:08.781Z,38.40
2024-04-06T20:41:36.560Z,38.20
2024-04-06T20:44:04.376Z,37.80
2024-04-06T20:46:31.971Z,37.40
2024-04-06T20:48:58.752Z,35.70
2024-04-06T20:51:25.892Z,39.50
2024-04-06T20:53:53.251Z,38.50
2024-04-06T20:56:20.117Z,39.60
2024-04-06T20:58:47.167Z,41.60
2024-04-06T21:01:14.763Z,41.50
2024-04-06T21:03:41.709Z,37.80
2024-04-06T21:06:10.782Z,40.20
2024-04-06T21:08:41.087Z,41.00
2024-04-06T21:11:07.820Z,41.70
2024-04-06T21:13:34.753Z,41.80
2024-04-06T21:16:03.862Z,38.90
2024-04-06T21:18:30.917Z,36.70
2024-04-06T21:20:57.731Z,40.50
2024-04-06T21:23:24.909Z,39.50
2024-04-06T21:25:51.738Z,43.10
2024-04-06T21:28:18.723Z,39.90
2024-04-06T21:30:45.525Z,41.00
2024-04-06T21:33:12.372Z,38.20
2024-04-06T21:35:39.651Z,40.00
2024-04-06T21:38:06.558Z,38.20
2024-04-06T21:40:33.477Z,34.90
2024-04-06T21:43:09.600Z,34.50
2024-04-06T21:45:42.603Z,31.40
2024-04-06T21:48:33.737Z,37.10
2024-04-06T21:51:04.015Z,34.50
2024-04-06T21:53:35.049Z,33.20
2024-04-06T21:56:04.128Z,33.20
2024-04-06T21:58:31.315Z,29.80
2024-04-06T22:00:59.600Z,31.00
2024-04-06T22:03:26.483Z,30.80
2024-04-06T22:05:53.544Z,30.90
2024-04-06T22:08:20.209Z,27.70
2024-04-06T22:10:47.134Z,29.90
2024-04-06T22:13:13.873Z,25.10
2024-04-06T22:15:40.846Z,24.80
2024-04-06T22:18:07.535Z,25.70
2024-04-06T22:20:35.012Z,28.10
2024-04-06T22:23:01.703Z,25.20
2024-04-06T22:25:28.812Z,26.50
2024-04-06T22:27:55.601Z,33.30
2024-04-06T22:30:22.839Z,22.00
2024-04-06T22:32:49.518Z,21.90
2024-04-06T22:35:16.333Z,23.90
2024-04-06T22:37:43.212Z,25.40
2024-04-06T22:40:10.634Z,22.80
2024-04-06T22:42:37.554Z,21.20
2024-04-06T22:45:06.077Z,20.30
2024-04-06T22:47:33.174Z,22.60
2024-04-06T22:50:00.229Z,21.30
2024-04-06T22:52:27.413Z,24.10
2024-04-06T22:54:54.211Z,20.90
2024-04-06T22:57:20.989Z,22.60
2024-04-06T22:59:47.886Z,22.70
2024-04-06T23:02:14.590Z,22.00
2024-04-06T23:04:41.479Z,24.50
2024-04-06T23:07:08.583Z,21.40
2024-04-06T23:09:35.215Z,18.30
2024-04-06T23:15:24.877Z,20.70
2024-04-06T23:17:51.832Z,21.30
2024-04-06T23:20:18.790Z,22.70
2024-04-06T23:22:45.860Z,20.20
2024-04-06T23:25:14.529Z,23.60
2024-04-06T23:27:44.116Z,22.30
2024-04-06T23:30:13.966Z,22.60
2024-04-06T23:32:40.882Z,22.40
2024-04-06T23:35:08.339Z,20.00
2024-04-06T23:37:35.406Z,19.20
2024-04-06T23:40:02.523Z,22.10
2024-04-06T23:42:29.375Z,17.20
2024-04-06T23:44:56.061Z,21.10
2024-04-06T23:47:22.809Z,23.70
2024-04-06T23:49:51.904Z,21.10
2024-04-06T23:52:18.578Z,21.30
2024-04-06T23:54:45.754Z,18.10
2024-04-06T23:57:12.393Z,16.30
2024-04-06T23:59:39.128Z,22.70
